Time;durP1;ratioP1;P1;durP2;ratioP2;P2;SDS_P1;SDS_P2;PMS_P1;PMS_P2;Temp;Humidity;BMP_temperature;BMP_pressure;BME280_temperature;BME280_humidity;BME280_pressure;Samples;Min_cycle;Max_cycle;Signal;HPM_P1;HPM_P2
2022/08/09 00:00:23;;;;;;;1.77;1.05;;;17.70;94.10;;;;;;5133516;27;20031;-77
2022/08/09 00:02:49;;;;;;;1.20;1.10;;;17.70;94.40;;;;;;5137088;27;20027;-79
2022/08/09 00:05:19;;;;;;;1.40;1.30;;;17.70;94.50;;;;;;5136401;27;20015;-78
2022/08/09 00:07:45;;;;;;;1.65;1.45;;;17.60;94.50;;;;;;5137056;27;20115;-77
2022/08/09 00:10:11;;;;;;;3.40;1.38;;;17.60;94.60;;;;;;5117947;27;20122;-77
2022/08/09 00:12:37;;;;;;;2.25;1.73;;;17.60;94.70;;;;;;5136510;27;20035;-76
2022/08/09 00:15:03;;;;;;;1.80;1.52;;;17.60;94.70;;;;;;5136501;27;20394;-76
2022/08/09 00:17:28;;;;;;;1.58;1.02;;;17.60;94.60;;;;;;5136892;27;20060;-76
2022/08/09 00:19:54;;;;;;;1.90;1.45;;;17.50;95.00;;;;;;5136343;27;20034;-75
2022/08/09 00:22:19;;;;;;;1.77;1.30;;;17.50;94.80;;;;;;5137560;27;20030;-77
2022/08/09 00:24:46;;;;;;;1.98;1.20;;;17.50;94.80;;;;;;5138576;27;20027;-77
2022/08/09 00:27:11;;;;;;;1.20;1.10;;;17.50;94.90;;;;;;5139235;27;20083;-76
2022/08/09 00:29:37;;;;;;;1.42;1.20;;;17.50;95.00;;;;;;5138917;27;20052;-77
2022/08/09 00:32:03;;;;;;;2.38;1.67;;;17.50;95.00;;;;;;5138471;27;20030;-78
2022/08/09 00:34:28;;;;;;;1.45;1.35;;;17.50;95.00;;;;;;5138109;27;20122;-78
2022/08/09 00:36:54;;;;;;;1.70;1.30;;;17.40;95.00;;;;;;5136360;27;20085;-77
2022/08/09 00:39:21;;;;;;;1.48;1.23;;;17.40;95.10;;;;;;5120288;27;20023;-76
2022/08/09 00:41:48;;;;;;;2.00;1.38;;;17.40;95.10;;;;;;5115836;28;20064;-77
2022/08/09 00:44:14;;;;;;;1.30;1.20;;;17.40;95.20;;;;;;5115689;28;20040;-77
2022/08/09 00:46:42;;;;;;;1.88;1.20;;;17.40;95.20;;;;;;5115784;28;20122;-77
2022/08/09 00:49:08;;;;;;;5.75;1.67;;;17.40;95.20;;;;;;5115142;28;20027;-76
2022/08/09 00:51:34;;;;;;;2.80;1.55;;;17.40;95.20;;;;;;5115908;28;20023;-77
2022/08/09 00:54:00;;;;;;;8.85;1.75;;;17.30;95.30;;;;;;5115372;28;20028;-77
2022/08/09 00:56:25;;;;;;;2.80;1.33;;;17.30;95.40;;;;;;5115652;28;20035;-77
2022/08/09 00:58:51;;;;;;;2.30;1.52;;;17.30;95.50;;;;;;5115319;28;20030;-77
2022/08/09 01:01:20;;;;;;;1.45;1.33;;;17.30;95.50;;;;;;5114972;28;20027;-77
2022/08/09 01:04:07;;;;;;;1.67;1.42;;;17.30;95.60;;;;;;5115426;28;20039;-77
2022/08/09 01:06:37;;;;;;;1.40;1.15;;;17.30;95.70;;;;;;5115593;28;20028;-77
2022/08/09 01:09:25;;;;;;;2.75;1.25;;;17.20;95.70;;;;;;5114966;28;20054;-77
2022/08/09 01:12:06;;;;;;;1.50;1.20;;;17.20;95.90;;;;;;5114864;28;20024;-78
2022/08/09 01:14:39;;;;;;;1.55;1.38;;;17.20;95.90;;;;;;5115486;28;20030;-77
2022/08/09 01:17:21;;;;;;;1.77;1.13;;;17.20;95.80;;;;;;5114488;28;20043;-77
2022/08/09 01:20:07;;;;;;;1.40;1.30;;;17.20;95.80;;;;;;5114858;28;20024;-77
2022/08/09 01:22:47;;;;;;;1.70;1.48;;;17.20;95.80;;;;;;5114898;28;20118;-77
2022/08/09 01:25:46;;;;;;;2.63;1.23;;;17.10;95.90;;;;;;5114236;28;20024;-77
2022/08/09 01:28:13;;;;;;;1.70;1.30;;;17.10;95.90;;;;;;5113929;28;20027;-77
2022/08/09 01:30:41;;;;;;;1.85;1.42;;;17.10;96.00;;;;;;5114506;28;20063;-77
2022/08/09 01:33:08;;;;;;;1.55;1.20;;;17.10;95.90;;;;;;5114386;28;20071;-77
2022/08/09 01:35:43;;;;;;;1.48;1.38;;;17.10;95.90;;;;;;5114575;28;20035;-77
2022/08/09 01:38:13;;;;;;;5.47;1.30;;;17.10;95.80;;;;;;5114246;28;20031;-77
2022/08/09 01:40:49;;;;;;;1.88;1.20;;;17.10;95.90;;;;;;5114626;28;20016;-77
2022/08/09 01:43:16;;;;;;;1.15;1.05;;;17.10;95.90;;;;;;5114112;28;20116;-77
2022/08/09 01:45:43;;;;;;;2.42;1.20;;;17.10;95.80;;;;;;5096494;28;20409;-77
2022/08/09 01:48:10;;;;;;;3.92;1.30;;;17.10;95.90;;;;;;5114055;28;20015;-77
2022/08/09 01:50:37;;;;;;;3.55;1.20;;;17.10;96.00;;;;;;5113864;28;20080;-77
2022/08/09 01:53:03;;;;;;;2.15;1.67;;;17.10;95.90;;;;;;5113290;28;20028;-75
2022/08/09 01:55:32;;;;;;;2.03;1.33;;;17.10;95.90;;;;;;5114448;28;20023;-77
2022/08/09 01:58:00;;;;;;;2.25;1.45;;;17.10;96.00;;;;;;5114048;28;20027;-77
2022/08/09 02:00:28;;;;;;;2.70;1.67;;;17.00;96.00;;;;;;5113492;28;20028;-77
2022/08/09 02:02:54;;;;;;;1.90;1.30;;;17.00;96.10;;;;;;5113836;28;20482;-77
2022/08/09 02:05:22;;;;;;;2.00;1.35;;;17.00;96.00;;;;;;5116240;27;20022;-77
2022/08/09 02:07:59;;;;;;;2.80;1.00;;;17.00;96.00;;;;;;5095657;28;20024;-77
2022/08/09 02:10:32;;;;;;;4.38;1.50;;;17.00;95.90;;;;;;5113718;28;20052;-77
2022/08/09 02:13:05;;;;;;;1.50;1.38;;;17.00;95.90;;;;;;5113775;28;20475;-77
2022/08/09 02:15:34;;;;;;;1.63;1.50;;;16.90;95.90;;;;;;5113778;28;20455;-77
2022/08/09 02:18:01;;;;;;;2.50;1.63;;;16.90;96.00;;;;;;5113912;28;20028;-77
2022/08/09 02:20:28;;;;;;;1.77;1.45;;;16.90;96.00;;;;;;5113520;28;20091;-77
2022/08/09 02:23:16;;;;;;;1.38;1.27;;;16.90;96.20;;;;;;5095175;28;20031;-76
2022/08/09 02:25:44;;;;;;;1.30;1.20;;;16.80;95.90;;;;;;5113719;28;20030;-78
2022/08/09 02:28:17;;;;;;;3.60;1.33;;;16.80;95.90;;;;;;5113274;28;20020;-77
2022/08/09 02:30:47;;;;;;;2.05;1.38;;;16.80;95.90;;;;;;5115761;27;20126;-77
2022/08/09 02:33:21;;;;;;;1.35;0.90;;;16.80;96.00;;;;;;5133464;27;20031;-76
2022/08/09 02:35:49;;;;;;;2.97;1.67;;;16.80;96.00;;;;;;5133997;27;20072;-76
2022/08/09 02:38:22;;;;;;;2.10;1.33;;;16.70;96.20;;;;;;5133957;27;20488;-77
2022/08/09 02:40:47;;;;;;;1.42;1.20;;;16.70;96.30;;;;;;5137616;27;20026;-76
2022/08/09 02:43:14;;;;;;;1.60;1.50;;;16.70;96.40;;;;;;5133473;27;20035;-77
2022/08/09 02:45:43;;;;;;;1.50;1.30;;;16.70;96.40;;;;;;5133486;27;20106;-76
2022/08/09 02:48:13;;;;;;;1.63;1.52;;;16.70;96.30;;;;;;5133308;27;20441;-76
2022/08/09 02:50:52;;;;;;;2.22;1.20;;;16.60;96.40;;;;;;5134232;27;20039;-77
2022/08/09 02:53:24;;;;;;;1.60;1.35;;;16.60;96.30;;;;;;5133667;27;20451;-78
2022/08/09 02:55:51;;;;;;;2.47;1.48;;;16.60;96.40;;;;;;5133839;27;20034;-75
2022/08/09 02:58:21;;;;;;;2.45;1.60;;;16.60;96.40;;;;;;5132821;27;20054;-77
2022/08/09 03:00:48;;;;;;;2.10;1.40;;;16.50;96.40;;;;;;5133838;27;20367;-77
2022/08/09 03:03:16;;;;;;;2.33;1.40;;;16.50;96.50;;;;;;5132490;27;20031;-78
2022/08/09 03:05:42;;;;;;;2.28;1.65;;;16.50;96.40;;;;;;5133521;27;20023;-77
2022/08/09 03:08:09;;;;;;;1.48;1.38;;;16.50;96.30;;;;;;5133155;27;20031;-75
2022/08/09 03:10:36;;;;;;;2.40;1.20;;;16.40;96.40;;;;;;5133911;27;20045;-76
2022/08/09 03:13:04;;;;;;;2.70;1.58;;;16.50;96.40;;;;;;5133462;27;20061;-75
2022/08/09 03:15:30;;;;;;;1.85;1.13;;;16.40;96.50;;;;;;5133077;28;20023;-77
2022/08/09 03:17:57;;;;;;;1.45;1.25;;;16.50;96.60;;;;;;5133865;28;20035;-77
2022/08/09 03:20:23;;;;;;;2.72;1.33;;;16.40;96.60;;;;;;5132631;28;20473;-77
2022/08/09 03:22:50;;;;;;;1.92;1.30;;;16.40;96.60;;;;;;5133573;28;20046;-77
2022/08/09 03:25:15;;;;;;;3.55;1.60;;;16.40;96.50;;;;;;5133233;28;20027;-77
2022/08/09 03:27:43;;;;;;;2.17;1.50;;;16.40;96.60;;;;;;5133406;28;20049;-77
2022/08/09 03:30:11;;;;;;;1.60;1.35;;;16.40;96.60;;;;;;5132369;28;20067;-76
2022/08/09 03:32:37;;;;;;;1.40;1.30;;;16.40;96.70;;;;;;5133304;28;20024;-77
2022/08/09 03:35:04;;;;;;;2.22;1.48;;;16.30;96.70;;;;;;5133550;28;20023;-76
2022/08/09 03:37:29;;;;;;;1.48;1.30;;;16.30;96.60;;;;;;5129613;28;20066;-77
2022/08/09 03:39:55;;;;;;;1.25;1.15;;;16.30;96.60;;;;;;5117840;28;20059;-77
2022/08/09 03:42:21;;;;;;;1.30;1.17;;;16.30;96.40;;;;;;5126592;28;20030;-76
2022/08/09 03:44:46;;;;;;;1.65;1.30;;;16.30;96.20;;;;;;5132021;28;20023;-77
2022/08/09 03:47:12;;;;;;;2.28;1.30;;;16.30;96.40;;;;;;5132493;28;20028;-76
2022/08/09 03:49:39;;;;;;;1.85;1.38;;;16.30;96.40;;;;;;5132543;28;20443;-76
2022/08/09 03:52:07;;;;;;;2.78;1.45;;;16.30;96.30;;;;;;5133044;28;20020;-76
2022/08/09 03:54:36;;;;;;;1.88;1.40;;;16.20;96.20;;;;;;5132171;28;20031;-77
2022/08/09 03:57:05;;;;;;;2.00;1.30;;;16.20;95.80;;;;;;5132625;28;20023;-77
2022/08/09 03:59:31;;;;;;;2.33;1.50;;;16.20;95.90;;;;;;5131742;28;20035;-76
2022/08/09 04:01:57;;;;;;;1.40;1.30;;;16.30;95.90;;;;;;5122282;28;20022;-77
2022/08/09 04:04:25;;;;;;;1.20;1.10;;;16.30;95.90;;;;;;5111192;28;20102;-76
2022/08/09 04:06:50;;;;;;;2.72;1.60;;;16.30;96.00;;;;;;5111918;28;20107;-76
2022/08/09 04:09:16;;;;;;;2.08;1.42;;;16.20;96.10;;;;;;5110904;28;20055;-76
2022/08/09 04:12:17;;;;;;;4.70;1.48;;;16.20;96.00;;;;;;5111862;28;20028;-76
2022/08/09 04:14:43;;;;;;;2.17;1.50;;;16.30;96.00;;;;;;5126765;27;20035;-76
2022/08/09 04:17:08;;;;;;;2.20;1.45;;;16.20;95.90;;;;;;5115277;28;20042;-76
2022/08/09 04:19:34;;;;;;;3.10;1.55;;;16.20;95.60;;;;;;5115106;28;20055;-76
2022/08/09 04:22:00;;;;;;;1.45;0.98;;;16.30;95.60;;;;;;5115563;28;20046;-75
2022/08/09 04:24:26;;;;;;;2.05;1.70;;;16.30;95.70;;;;;;5114864;28;20035;-76
2022/08/09 04:26:52;;;;;;;1.98;1.60;;;16.30;95.50;;;;;;5124372;27;20016;-76
2022/08/09 04:29:19;;;;;;;1.45;1.15;;;16.30;95.60;;;;;;5114383;28;20055;-76
2022/08/09 04:31:44;;;;;;;1.65;1.50;;;16.30;95.50;;;;;;5115512;28;20024;-76
2022/08/09 04:34:10;;;;;;;1.50;1.30;;;16.30;95.40;;;;;;5115148;28;20479;-77
2022/08/09 04:36:36;;;;;;;1.45;1.27;;;16.40;95.50;;;;;;5114690;28;20062;-76
2022/08/09 04:39:04;;;;;;;2.25;1.45;;;16.40;95.10;;;;;;5114739;28;20070;-76
2022/08/09 04:41:31;;;;;;;1.50;1.40;;;16.50;94.90;;;;;;5114565;28;20371;-77
2022/08/09 04:43:57;;;;;;;3.03;1.70;;;16.70;94.60;;;;;;5115104;28;20361;-75
2022/08/09 04:46:23;;;;;;;1.38;1.15;;;16.80;94.40;;;;;;5114648;28;20498;-77
2022/08/09 04:48:48;;;;;;;2.58;1.30;;;16.90;94.10;;;;;;5114802;27;20094;-77
2022/08/09 04:51:14;;;;;;;2.22;1.50;;;17.10;93.70;;;;;;5114574;28;20087;-74
2022/08/09 04:53:41;;;;;;;1.30;1.17;;;17.20;93.40;;;;;;5114790;28;20032;-77
2022/08/09 04:56:07;;;;;;;1.95;1.25;;;17.30;92.90;;;;;;5114582;28;20082;-77
2022/08/09 04:58:33;;;;;;;3.08;1.35;;;17.50;91.90;;;;;;5114401;28;20066;-78
2022/08/09 05:01:00;;;;;;;2.90;1.40;;;17.70;91.40;;;;;;5118907;27;20047;-78
2022/08/09 05:03:26;;;;;;;6.38;1.80;;;17.80;90.80;;;;;;5135349;27;20031;-77
2022/08/09 05:05:52;;;;;;;1.90;1.50;;;18.00;90.40;;;;;;5135138;27;20026;-79
2022/08/09 05:08:18;;;;;;;3.95;1.35;;;18.10;89.90;;;;;;5135055;27;20023;-79
2022/08/09 05:10:44;;;;;;;2.45;1.70;;;18.30;88.90;;;;;;5134884;27;20202;-78
2022/08/09 05:13:10;;;;;;;1.70;1.40;;;18.40;87.50;;;;;;5135244;27;20034;-79
2022/08/09 05:15:35;;;;;;;4.43;1.60;;;18.50;86.80;;;;;;5134443;27;20019;-78
2022/08/09 05:18:01;;;;;;;2.72;1.55;;;18.80;85.90;;;;;;5133969;27;20068;-79
2022/08/09 05:20:28;;;;;;;3.03;1.23;;;18.90;85.00;;;;;;5134934;27;20019;-79
2022/08/09 05:22:53;;;;;;;1.38;1.23;;;19.20;83.50;;;;;;5135193;27;20019;-79
2022/08/09 05:25:20;;;;;;;2.10;1.20;;;19.30;81.40;;;;;;5134457;27;20387;-79
2022/08/09 05:27:46;;;;;;;3.08;1.20;;;19.50;82.00;;;;;;5134322;27;20020;-79
2022/08/09 05:30:12;;;;;;;1.85;1.60;;;19.70;79.70;;;;;;5134909;27;20104;-79
2022/08/09 05:32:38;;;;;;;2.13;1.50;;;20.00;79.60;;;;;;5134075;27;20020;-79
2022/08/09 05:35:04;;;;;;;1.70;1.23;;;20.20;78.50;;;;;;5134857;27;20422;-78
2022/08/09 05:37:30;;;;;;;1.50;1.17;;;20.30;75.70;;;;;;5134623;27;20026;-78
2022/08/09 05:39:57;;;;;;;4.07;1.92;;;20.50;75.50;;;;;;5135378;27;20102;-74
2022/08/09 05:42:24;;;;;;;2.75;1.50;;;20.80;76.70;;;;;;5134271;27;20030;-73
2022/08/09 05:44:51;;;;;;;2.15;1.55;;;21.00;77.00;;;;;;5134363;27;20019;-75
2022/08/09 05:47:21;;;;;;;1.95;1.40;;;21.20;74.30;;;;;;5134478;27;20055;-69
2022/08/09 05:49:46;;;;;;;1.30;1.10;;;21.40;77.00;;;;;;5124992;27;20020;-72
2022/08/09 05:52:12;;;;;;;2.38;1.40;;;21.80;78.10;;;;;;5133205;27;20438;-86
2022/08/09 05:54:38;;;;;;;2.00;1.10;;;22.10;73.80;;;;;;5119069;27;20057;-85
2022/08/09 05:57:03;;;;;;;1.70;1.30;;;22.60;69.40;;;;;;5123610;27;20027;-86
2022/08/09 05:59:29;;;;;;;1.85;1.27;;;23.30;67.60;;;;;;5126582;27;20046;-88
2022/08/09 06:01:55;;;;;;;2.05;1.13;;;24.10;65.70;;;;;;5144020;27;20072;-87
2022/08/09 06:04:21;;;;;;;5.15;1.40;;;24.90;63.30;;;;;;5119632;27;20088;-88
2022/08/09 06:06:46;;;;;;;3.58;1.20;;;25.70;59.20;;;;;;5116122;28;20032;-89
2022/08/09 06:09:12;;;;;;;2.22;1.13;;;26.40;59.30;;;;;;5098990;28;20027;-89
2022/08/09 06:11:37;;;;;;;1.35;1.10;;;26.80;52.00;;;;;;5118767;28;20028;-89
2022/08/09 06:14:03;;;;;;;1.23;1.00;;;27.30;49.30;;;;;;5118888;28;20035;-88
2022/08/09 06:16:29;;;;;;;1.60;1.00;;;27.60;48.50;;;;;;5118027;28;20075;-90
2022/08/09 06:18:54;;;;;;;3.45;1.90;;;27.90;47.20;;;;;;5121220;28;20044;-88
2022/08/09 06:21:20;;;;;;;0.80;0.80;;;28.10;47.60;;;;;;5127345;28;20024;-82
2022/08/09 06:23:47;;;;;;;3.03;1.60;;;28.40;46.60;;;;;;5137305;28;20026;-87
2022/08/09 06:26:16;;;;;;;4.43;1.10;;;28.60;45.30;;;;;;5127700;28;20015;-91
2022/08/09 06:28:41;;;;;;;1.30;1.10;;;28.70;44.20;;;;;;5118518;28;20058;-91
2022/08/09 06:31:07;;;;;;;1.40;1.00;;;28.80;44.50;;;;;;5117612;28;20024;-89
2022/08/09 06:33:33;;;;;;;0.98;0.63;;;28.60;43.40;;;;;;5116514;28;20364;-91
2022/08/09 06:35:59;;;;;;;1.25;1.08;;;28.50;45.00;;;;;;5118618;27;20034;-89
2022/08/09 06:38:25;;;;;;;3.35;1.10;;;28.50;44.70;;;;;;5116146;27;20463;-89
2022/08/09 06:40:51;;;;;;;1.98;1.20;;;28.40;44.50;;;;;;5136134;27;20055;-89
2022/08/09 06:43:16;;;;;;;1.48;1.00;;;28.30;44.30;;;;;;5136359;27;20047;-90
2022/08/09 06:45:42;;;;;;;1.48;1.08;;;28.00;45.70;;;;;;5135812;27;20485;-90
2022/08/09 06:48:07;;;;;;;2.40;1.20;;;28.10;45.20;;;;;;5136018;27;20071;-88
2022/08/09 06:50:33;;;;;;;1.75;1.23;;;28.10;46.60;;;;;;5135303;27;20072;-89
2022/08/09 06:53:00;;;;;;;0.95;0.90;;;28.10;45.00;;;;;;5135911;27;20058;-86
2022/08/09 06:55:30;;;;;;;1.75;1.17;;;28.30;45.10;;;;;;5135166;27;20035;-87
2022/08/09 06:57:56;;;;;;;3.75;1.10;;;28.40;43.90;;;;;;5135687;27;20026;-89
2022/08/09 07:00:22;;;;;;;1.50;0.95;;;28.70;44.80;;;;;;5136103;27;20102;-90
2022/08/09 07:02:49;;;;;;;2.03;1.20;;;28.90;43.30;;;;;;5134782;27;20031;-88
2022/08/09 07:05:14;;;;;;;1.27;1.10;;;29.30;44.10;;;;;;5134968;27;20034;-90
2022/08/09 07:07:40;;;;;;;1.27;1.10;;;29.90;42.90;;;;;;5116128;28;20114;-89
2022/08/09 07:10:06;;;;;;;1.45;1.15;;;30.40;43.40;;;;;;5134967;27;20444;-90
2022/08/09 07:12:32;;;;;;;1.00;0.90;;;31.20;41.40;;;;;;5135204;27;20027;-89
2022/08/09 07:14:57;;;;;;;3.78;0.85;;;31.90;40.00;;;;;;5134136;27;20135;-88
2022/08/09 07:17:23;;;;;;;1.73;0.98;;;32.50;39.80;;;;;;5134446;28;20033;-89
2022/08/09 07:19:49;;;;;;;1.35;0.90;;;33.20;38.30;;;;;;5133811;28;20363;-87
2022/08/09 07:22:15;;;;;;;2.22;1.10;;;33.60;37.20;;;;;;5133707;28;20031;-88
2022/08/09 07:24:41;;;;;;;2.60;0.98;;;34.30;37.00;;;;;;5135121;28;20145;-89
2022/08/09 07:27:10;;;;;;;1.48;0.82;;;35.00;36.60;;;;;;5134996;28;20083;-88
2022/08/09 07:29:36;;;;;;;0.73;0.73;;;35.30;34.20;;;;;;5114426;28;20073;-88
2022/08/09 07:32:02;;;;;;;2.15;1.08;;;35.30;35.10;;;;;;5133971;28;20027;-89
2022/08/09 07:34:29;;;;;;;1.77;0.90;;;36.10;35.30;;;;;;5135287;28;20594;-89
2022/08/09 07:36:55;;;;;;;1.42;1.10;;;36.60;33.90;;;;;;5119105;28;20493;-89
2022/08/09 07:39:20;;;;;;;1.92;1.00;;;36.80;33.10;;;;;;5120487;28;20110;-90
2022/08/09 07:41:47;;;;;;;1.55;0.98;;;37.30;33.10;;;;;;5139345;28;20038;-88
2022/08/09 07:44:12;;;;;;;1.50;1.00;;;37.60;33.30;;;;;;5138359;28;20485;-89
2022/08/09 07:46:38;;;;;;;3.03;1.15;;;38.00;32.20;;;;;;5139066;28;20047;-86
2022/08/09 07:49:04;;;;;;;2.28;1.02;;;38.50;31.60;;;;;;5116182;27;20023;-89
2022/08/09 07:51:30;;;;;;;1.35;1.10;;;38.40;30.70;;;;;;5137238;27;20042;-88
2022/08/09 07:53:56;;;;;;;1.10;0.98;;;37.90;30.70;;;;;;5137416;27;20038;-90
2022/08/09 07:56:22;;;;;;;2.22;1.02;;;37.80;31.30;;;;;;5138317;27;20058;-89
2022/08/09 07:58:47;;;;;;;1.27;0.90;;;38.20;31.20;;;;;;5138307;27;20031;-90
2022/08/09 08:01:13;;;;;;;7.65;2.33;;;38.30;30.30;;;;;;5137710;27;20023;-89
2022/08/09 08:03:39;;;;;;;1.02;0.82;;;38.20;31.10;;;;;;5138172;27;20030;-89
2022/08/09 08:06:05;;;;;;;1.60;1.10;;;38.40;31.20;;;;;;5138401;27;20024;-90
2022/08/09 08:08:32;;;;;;;1.85;1.25;;;38.70;30.70;;;;;;5134805;27;20043;-90
2022/08/09 08:10:57;;;;;;;1.25;0.90;;;38.30;30.30;;;;;;5120703;27;20023;-89
2022/08/09 08:13:23;;;;;;;1.52;1.00;;;38.40;31.00;;;;;;5138062;27;20041;-89
2022/08/09 08:15:49;;;;;;;1.00;0.90;;;38.90;31.00;;;;;;5138298;27;20066;-89
2022/08/09 08:18:14;;;;;;;4.60;1.30;;;37.90;30.50;;;;;;5137545;27;20062;-88
2022/08/09 08:20:40;;;;;;;1.75;0.90;;;37.50;31.20;;;;;;5137631;27;20023;-90
2022/08/09 08:23:06;;;;;;;1.10;1.00;;;37.60;31.70;;;;;;5119154;27;20067;-89
2022/08/09 08:25:32;;;;;;;1.52;1.13;;;38.00;31.30;;;;;;5137362;27;20497;-89
2022/08/09 08:27:58;;;;;;;2.80;1.42;;;37.70;30.80;;;;;;5137065;27;20324;-90
2022/08/09 08:30:24;;;;;;;1.02;0.93;;;37.90;31.60;;;;;;5118974;27;20054;-87
2022/08/09 08:32:51;;;;;;;2.72;1.15;;;38.10;31.00;;;;;;5136718;27;20091;-89
2022/08/09 08:35:17;;;;;;;6.57;1.30;;;36.90;32.40;;;;;;5138299;27;20110;-88
2022/08/09 08:37:42;;;;;;;1.15;1.00;;;36.90;32.00;;;;;;5141593;27;20483;-89
2022/08/09 08:40:09;;;;;;;4.28;1.30;;;37.20;31.90;;;;;;5140818;27;20036;-89
2022/08/09 08:42:34;;;;;;;3.70;0.95;;;37.20;32.00;;;;;;5145135;27;20073;-89
2022/08/09 08:45:00;;;;;;;3.05;1.08;;;37.40;32.30;;;;;;5145883;27;20379;-88
2022/08/09 08:47:27;;;;;;;1.02;0.88;;;36.80;32.00;;;;;;5146008;27;20027;-89
2022/08/09 08:49:56;;;;;;;1.33;0.90;;;36.40;33.40;;;;;;5146405;27;20030;-89
2022/08/09 08:52:25;;;;;;;2.55;1.20;;;36.20;33.80;;;;;;5146954;27;20064;-88
2022/08/09 08:54:55;;;;;;;1.50;1.00;;;35.40;33.60;;;;;;5131507;27;20155;-87
2022/08/09 08:57:21;;;;;;;3.95;1.02;;;34.80;33.80;;;;;;5142000;27;20027;-85
2022/08/09 08:59:48;;;;;;;1.20;0.90;;;34.40;34.60;;;;;;5159489;27;20023;-84
2022/08/09 09:02:22;;;;;;;4.20;1.08;;;33.60;36.20;;;;;;5159434;27;20018;-84
2022/08/09 09:04:51;;;;;;;1.88;1.10;;;33.00;37.00;;;;;;5141890;27;20020;-85
2022/08/09 09:07:18;;;;;;;2.85;1.02;;;32.50;37.00;;;;;;5158683;27;20031;-87
2022/08/09 09:09:48;;;;;;;1.58;1.00;;;32.00;38.20;;;;;;5142696;27;20028;-88
2022/08/09 09:12:20;;;;;;;2.20;1.02;;;31.70;38.10;;;;;;5142801;27;20027;-89
2022/08/09 09:14:47;;;;;;;0.93;0.88;;;31.30;39.10;;;;;;5143356;27;20023;-87
2022/08/09 09:19:48;;;;;;;3.15;1.40;;;30.60;40.10;;;;;;5112163;22;20054;-87
2022/08/09 09:22:16;;;;;;;4.68;1.50;;;30.30;41.60;;;;;;5020808;28;20034;-88
2022/08/09 09:24:45;;;;;;;0.90;0.77;;;30.20;42.20;;;;;;5019050;28;20058;-88
2022/08/09 09:27:15;;;;;;;2.03;1.30;;;30.00;40.90;;;;;;5016504;28;20025;-89
2022/08/09 09:29:42;;;;;;;3.00;1.48;;;29.80;41.00;;;;;;4998342;28;20459;-89
2022/08/09 09:32:09;;;;;;;2.70;1.30;;;29.50;42.50;;;;;;5014617;28;20470;-89
2022/08/09 09:34:35;;;;;;;3.55;1.25;;;29.20;44.00;;;;;;5015480;28;20032;-89
2022/08/09 09:37:03;;;;;;;1.67;1.05;;;29.10;42.80;;;;;;5014902;28;20026;-83
2022/08/09 09:39:30;;;;;;;1.45;1.00;;;29.10;44.10;;;;;;4999564;28;20026;-90
2022/08/09 09:41:56;;;;;;;1.33;1.05;;;29.10;42.80;;;;;;5018053;28;20041;-88
2022/08/09 09:44:33;;;;;;;1.70;1.05;;;29.00;42.70;;;;;;5017308;28;20040;-88
2022/08/09 09:47:15;;;;;;;1.67;1.10;;;28.90;43.40;;;;;;5016022;28;20088;-88
2022/08/09 09:49:49;;;;;;;1.10;1.00;;;28.90;43.70;;;;;;5015884;28;20382;-88
2022/08/09 09:52:15;;;;;;;2.72;1.10;;;28.90;43.50;;;;;;5015053;28;20037;-89
2022/08/09 09:54:42;;;;;;;1.70;0.95;;;28.80;43.00;;;;;;5016618;28;20030;-87
2022/08/09 09:57:21;;;;;;;2.10;1.08;;;28.60;44.20;;;;;;5017160;28;20085;-88
2022/08/09 09:59:53;;;;;;;4.63;1.05;;;28.50;43.90;;;;;;5016809;28;20034;-88
2022/08/09 10:02:20;;;;;;;1.85;1.10;;;28.50;44.00;;;;;;5017621;28;20049;-89
2022/08/09 10:05:02;;;;;;;3.03;1.10;;;28.50;45.00;;;;;;5020075;28;20092;-88
2022/08/09 10:07:28;;;;;;;1.50;1.17;;;28.60;44.20;;;;;;5017636;28;20022;-89
2022/08/09 10:09:56;;;;;;;2.13;1.38;;;28.60;44.50;;;;;;5013123;28;20041;-89
2022/08/09 10:12:31;;;;;;;3.53;1.60;;;28.80;44.80;;;;;;5014003;28;20118;-89
2022/08/09 10:15:10;;;;;;;1.48;1.10;;;28.90;44.90;;;;;;5026102;28;20037;-89
2022/08/09 10:17:38;;;;;;;2.95;1.35;;;29.00;44.40;;;;;;5034155;28;20514;-90
2022/08/09 10:20:25;;;;;;;1.30;0.77;;;29.10;43.90;;;;;;5029982;28;20046;-82
2022/08/09 10:22:54;;;;;;;1.25;1.05;;;29.20;43.70;;;;;;5015256;28;20117;-88
2022/08/09 10:25:22;;;;;;;1.63;1.30;;;29.20;43.50;;;;;;5015413;28;20033;-88
2022/08/09 10:27:47;;;;;;;1.50;1.23;;;29.20;43.10;;;;;;4999918;28;20114;-89
2022/08/09 10:30:13;;;;;;;3.38;1.20;;;29.10;42.50;;;;;;4994295;28;20109;-89
2022/08/09 10:32:39;;;;;;;1.48;1.10;;;29.10;42.70;;;;;;4994536;28;20030;-89
2022/08/09 10:35:06;;;;;;;1.52;1.40;;;29.10;42.90;;;;;;4994033;28;20034;-84
2022/08/09 10:37:32;;;;;;;8.93;1.50;;;28.90;43.00;;;;;;4993957;28;20038;-89
2022/08/09 10:39:58;;;;;;;1.75;1.30;;;28.70;43.30;;;;;;4994480;28;20041;-90
2022/08/09 10:42:23;;;;;;;1.92;1.17;;;28.80;44.10;;;;;;4994555;28;20467;-88
2022/08/09 10:44:59;;;;;;;3.05;1.00;;;28.70;43.30;;;;;;4997134;28;20161;-88
2022/08/09 10:47:28;;;;;;;1.20;1.10;;;28.70;43.80;;;;;;5014441;28;20018;-89
2022/08/09 10:50:05;;;;;;;2.08;1.05;;;28.80;44.90;;;;;;4993837;28;20057;-89
2022/08/09 10:52:33;;;;;;;1.80;1.17;;;28.80;42.70;;;;;;5011877;28;20030;-89
2022/08/09 10:55:25;;;;;;;1.85;1.20;;;28.70;43.20;;;;;;5007527;28;20382;-89
2022/08/09 10:57:52;;;;;;;2.30;1.45;;;28.70;43.90;;;;;;4995506;28;20033;-89
2022/08/09 11:00:29;;;;;;;1.73;1.10;;;28.60;43.30;;;;;;4995441;28;20034;-90
2022/08/09 11:02:56;;;;;;;3.00;1.92;;;28.50;43.60;;;;;;4993984;28;20048;-89
2022/08/09 11:05:23;;;;;;;6.47;1.30;;;28.50;44.00;;;;;;4993327;28;20037;-87
2022/08/09 11:07:49;;;;;;;2.97;1.33;;;28.40;43.20;;;;;;4994574;28;20033;-89
2022/08/09 11:10:40;;;;;;;1.42;1.17;;;28.40;43.10;;;;;;4994732;28;20037;-88
2022/08/09 11:13:16;;;;;;;1.77;1.00;;;28.40;43.10;;;;;;4977533;28;20038;-90
2022/08/09 11:15:43;;;;;;;3.55;1.20;;;28.50;43.10;;;;;;4995797;28;20062;-89
2022/08/09 11:18:11;;;;;;;1.30;1.13;;;28.50;42.60;;;;;;4994534;28;20018;-88
2022/08/09 11:20:46;;;;;;;1.30;1.20;;;28.50;42.20;;;;;;4995001;28;20119;-89
2022/08/09 11:23:13;;;;;;;1.20;1.10;;;28.50;41.80;;;;;;4993857;28;20411;-86
2022/08/09 11:25:42;;;;;;;2.33;1.20;;;28.50;42.00;;;;;;4998073;28;20050;-88
2022/08/09 11:28:40;;;;;;;2.67;1.08;;;28.60;42.60;;;;;;5016531;28;20076;-81
2022/08/09 11:31:47;;;;;;;1.38;0.95;;;28.70;41.30;;;;;;4964541;28;20042;-88
2022/08/09 11:34:28;;;;;;;2.97;1.27;;;28.80;40.60;;;;;;5017518;28;20026;-88
2022/08/09 11:36:58;;;;;;;1.05;0.95;;;28.80;40.60;;;;;;5017181;28;20026;-89
2022/08/09 11:39:23;;;;;;;2.80;1.40;;;28.90;40.40;;;;;;5017310;28;20426;-89
2022/08/09 11:41:49;;;;;;;2.58;1.17;;;29.00;39.80;;;;;;5017353;28;20034;-89
2022/08/09 11:44:16;;;;;;;2.00;1.20;;;29.00;38.90;;;;;;5017186;28;20029;-90
2022/08/09 11:46:51;;;;;;;1.63;1.35;;;28.80;38.50;;;;;;5017345;28;20032;-90
2022/08/09 11:49:17;;;;;;;2.35;1.00;;;28.80;40.20;;;;;;5016975;28;20080;-91
2022/08/09 11:52:02;;;;;;;1.48;1.10;;;28.90;40.00;;;;;;5016951;28;20026;-91
2022/08/09 11:54:28;;;;;;;0.75;0.70;;;29.00;38.60;;;;;;5016886;28;20033;-90
2022/08/09 11:56:53;;;;;;;3.13;1.00;;;29.00;38.20;;;;;;5016651;28;20030;-89
2022/08/09 11:59:27;;;;;;;1.60;1.23;;;29.10;38.10;;;;;;5018569;28;20367;-90
2022/08/09 12:01:53;;;;;;;1.35;1.25;;;29.20;37.60;;;;;;5022290;28;20109;-88
2022/08/09 12:04:18;;;;;;;4.18;1.15;;;29.20;37.70;;;;;;5015726;28;20076;-90
2022/08/09 12:06:52;;;;;;;1.15;0.88;;;29.00;37.10;;;;;;5002295;28;20379;-90
2022/08/09 12:09:25;;;;;;;1.25;0.90;;;29.00;37.70;;;;;;5005367;28;20030;-90
2022/08/09 12:12:04;;;;;;;2.65;1.08;;;29.00;38.30;;;;;;5004682;28;20026;-90
2022/08/09 12:14:32;;;;;;;3.05;1.08;;;28.90;37.60;;;;;;5005377;28;20027;-90
2022/08/09 12:16:59;;;;;;;2.25;0.93;;;28.90;37.80;;;;;;5006105;28;20049;-89
2022/08/09 12:19:29;;;;;;;1.50;0.98;;;28.90;38.10;;;;;;5005521;28;20085;-92
2022/08/09 12:22:01;;;;;;;1.42;1.10;;;28.80;37.80;;;;;;5006531;28;20101;-90
2022/08/09 12:24:27;;;;;;;1.45;1.10;;;28.70;38.20;;;;;;4989649;28;20033;-90
2022/08/09 12:26:58;;;;;;;1.10;0.80;;;28.60;37.70;;;;;;5014467;28;20022;-90
2022/08/09 12:29:27;;;;;;;2.78;1.10;;;28.60;38.50;;;;;;5026105;28;20030;-90
2022/08/09 12:32:23;;;;;;;1.30;0.90;;;28.50;38.90;;;;;;5026360;28;20101;-89
2022/08/09 12:34:49;;;;;;;1.65;1.02;;;28.40;38.10;;;;;;5007896;28;20077;-90
2022/08/09 12:37:15;;;;;;;2.03;1.10;;;28.40;38.40;;;;;;5025401;28;20069;-81
2022/08/09 12:39:40;;;;;;;3.03;1.02;;;28.30;37.60;;;;;;5024038;28;20022;-90
2022/08/09 12:42:06;;;;;;;0.95;0.80;;;28.20;37.60;;;;;;5017376;28;20022;-90
2022/08/09 12:44:38;;;;;;;1.40;0.93;;;28.10;37.90;;;;;;4996423;28;20033;-90
2022/08/09 12:47:05;;;;;;;0.80;0.80;;;28.00;38.40;;;;;;5017718;28;20026;-91
2022/08/09 12:49:35;;;;;;;1.30;1.00;;;28.00;38.60;;;;;;5018345;28;20459;-88
2022/08/09 12:52:02;;;;;;;2.05;0.80;;;27.90;38.50;;;;;;5018567;28;20041;-90
2022/08/09 12:54:27;;;;;;;2.42;1.00;;;27.90;39.00;;;;;;4999176;28;20529;-90
2022/08/09 12:56:53;;;;;;;2.25;1.02;;;27.90;39.40;;;;;;5017207;28;20034;-90